createdAt,value
2023-05-01T00:01:29.215Z,9.90
2023-05-01T00:01:54.446Z,9.90
2023-05-01T00:03:56.249Z,9.39
2023-05-01T00:06:22.858Z,9.91
2023-05-01T00:06:54.508Z,9.91
2023-05-01T00:08:49.231Z,9.92
2023-05-01T00:11:15.732Z,9.92
2023-05-01T00:11:54.445Z,9.92
2023-05-01T00:13:42.213Z,9.83
2023-05-01T00:16:09.856Z,9.98
2023-05-01T00:16:54.486Z,9.98
2023-05-01T00:18:36.480Z,10.05
2023-05-01T00:21:03.184Z,9.94
2023-05-01T00:21:54.459Z,9.94
2023-05-01T00:23:29.526Z,9.65
2023-05-01T00:25:55.909Z,10.21
2023-05-01T00:26:54.476Z,10.21
2023-05-01T00:28:22.353Z,10.36
2023-05-01T00:30:48.693Z,10.44
2023-05-01T00:31:54.553Z,10.44
2023-05-01T00:33:15.384Z,10.52
2023-05-01T00:35:45.043Z,10.56
2023-05-01T00:36:54.464Z,10.56
2023-05-01T00:38:11.770Z,10.41
2023-05-01T00:40:45.439Z,10.49
2023-05-01T00:41:54.502Z,10.49
2023-05-01T00:43:12.739Z,10.12
2023-05-01T00:45:40.604Z,10.63
2023-05-01T00:46:54.541Z,10.63
2023-05-01T00:48:07.170Z,10.58
2023-05-01T00:50:33.699Z,10.54
2023-05-01T00:51:54.459Z,10.54
2023-05-01T00:53:00.312Z,10.51
2023-05-01T00:55:26.936Z,10.48
2023-05-01T00:56:54.477Z,10.48
2023-05-01T00:57:55.145Z,10.07
2023-05-01T01:00:24.442Z,9.66
2023-05-01T01:01:56.459Z,9.66
2023-05-01T01:02:51.983Z,9.82
2023-05-01T01:05:22.860Z,10.31
2023-05-01T01:06:54.448Z,10.31
2023-05-01T01:07:56.343Z,10.31
2023-05-01T01:10:34.971Z,10.29
2023-05-01T01:11:54.476Z,10.29
2023-05-01T01:13:12.075Z,10.28
2023-05-01T01:15:52.566Z,10.04
2023-05-01T01:16:54.445Z,10.04
2023-05-01T01:18:27.902Z,10.28
2023-05-01T01:21:37.626Z,10.01
2023-05-01T01:21:54.454Z,10.01
2023-05-01T01:24:15.788Z,10.33
2023-05-01T01:27:03.991Z,10.33
2023-05-01T01:27:04.166Z,10.33
2023-05-01T01:29:43.828Z,10.37
2023-05-01T01:31:54.512Z,10.37
2023-05-01T01:32:51.995Z,10.36
2023-05-01T01:35:21.115Z,9.10
2023-05-01T01:36:54.448Z,9.10
2023-05-01T01:38:06.555Z,10.22
2023-05-01T01:40:44.909Z,10.53
2023-05-01T01:41:54.455Z,10.53
2023-05-01T01:43:15.806Z,10.38
2023-05-01T01:45:46.181Z,10.29
2023-05-01T01:46:54.507Z,10.29
2023-05-01T01:48:23.779Z,10.21
2023-05-01T01:50:51.754Z,10.13
2023-05-01T01:51:54.478Z,10.13
2023-05-01T01:53:19.632Z,10.43
2023-05-01T01:55:48.889Z,10.09
2023-05-01T01:56:54.493Z,10.09
2023-05-01T01:58:18.177Z,10.56
2023-05-01T02:00:45.537Z,10.54
2023-05-01T02:01:54.532Z,10.54
2023-05-01T02:03:13.429Z,10.53
2023-05-01T02:05:42.220Z,10.45
2023-05-01T02:06:54.511Z,10.45
2023-05-01T02:08:11.437Z,10.05
2023-05-01T02:10:40.206Z,10.13
2023-05-01T02:11:54.471Z,10.13
2023-05-01T02:13:07.164Z,10.40
2023-05-01T02:15:34.731Z,9.97
2023-05-01T02:16:54.476Z,9.97
2023-05-01T02:18:05.440Z,9.95
2023-05-01T02:20:32.969Z,10.34
2023-05-01T02:21:54.505Z,10.34
2023-05-01T02:23:00.350Z,9.76
2023-05-01T02:25:30.142Z,9.89
2023-05-01T02:26:54.472Z,9.89
2023-05-01T02:28:00.245Z,10.23
2023-05-01T02:30:26.630Z,10.12
2023-05-01T02:31:54.566Z,10.12
2023-05-01T02:32:53.069Z,9.76
2023-05-01T02:35:19.556Z,10.13
2023-05-01T02:36:54.501Z,10.13
2023-05-01T02:37:46.319Z,10.13
2023-05-01T02:40:15.094Z,10.14
2023-05-01T02:41:54.498Z,10.14
2023-05-01T02:42:44.869Z,10.14
2023-05-01T02:45:19.090Z,10.15
2023-05-01T02:46:54.574Z,10.15
2023-05-01T02:47:48.510Z,9.62
2023-05-01T02:50:16.468Z,10.18
2023-05-01T02:51:54.474Z,10.18
2023-05-01T02:52:44.462Z,10.19
2023-05-01T02:55:11.183Z,9.99
2023-05-01T02:56:54.520Z,9.99
2023-05-01T02:57:38.306Z,10.23
2023-05-01T03:00:05.127Z,10.27
2023-05-01T03:01:54.499Z,10.27
2023-05-01T03:02:32.076Z,10.30
2023-05-01T03:04:58.541Z,10.09
2023-05-01T03:06:54.496Z,10.09
2023-05-01T03:07:34.884Z,10.27
2023-05-01T03:10:03.909Z,10.25
2023-05-01T03:11:54.493Z,10.25
2023-05-01T03:12:30.978Z,9.33
2023-05-01T03:14:57.528Z,10.19
2023-05-01T03:16:54.687Z,10.19
2023-05-01T03:17:24.025Z,10.15
2023-05-01T03:19:51.494Z,9.48
2023-05-01T03:21:54.479Z,9.48
2023-05-01T03:22:20.508Z,10.09
2023-05-01T03:24:47.537Z,9.92
2023-05-01T03:26:54.496Z,9.92
2023-05-01T03:27:14.024Z,9.92
2023-05-01T03:29:40.481Z,9.93
2023-05-01T03:31:54.577Z,9.93
2023-05-01T03:32:07.250Z,9.90
2023-05-01T03:34:34.212Z,9.75
2023-05-01T03:36:54.483Z,9.75
2023-05-01T03:37:00.571Z,9.85
2023-05-01T03:39:26.926Z,9.23
2023-05-01T03:41:53.238Z,9.86
2023-05-01T03:41:54.489Z,9.86
2023-05-01T03:44:19.568Z,9.89
2023-05-01T03:46:46.002Z,8.72
2023-05-01T03:46:54.525Z,8.72
2023-05-01T03:49:12.635Z,9.96
2023-05-01T03:51:39.177Z,9.91
2023-05-01T03:51:54.513Z,9.91
2023-05-01T03:54:05.523Z,10.06
2023-05-01T03:56:35.577Z,9.81
2023-05-01T03:56:54.488Z,9.81
2023-05-01T03:59:02.130Z,9.99
2023-05-01T04:01:30.807Z,10.01
2023-05-01T04:01:54.565Z,10.01
2023-05-01T04:03:57.304Z,10.19
2023-05-01T04:06:23.982Z,10.10
2023-05-01T04:06:54.487Z,10.10
2023-05-01T04:08:50.348Z,9.91
2023-05-01T04:11:16.780Z,10.30
2023-05-01T04:11:54.497Z,10.30
2023-05-01T04:13:43.160Z,10.35
2023-05-01T04:16:09.604Z,10.18
2023-05-01T04:16:54.488Z,10.18
2023-05-01T04:18:35.913Z,10.38
2023-05-01T04:21:02.581Z,10.09
2023-05-01T04:21:54.524Z,10.09
2023-05-01T04:23:28.959Z,10.43
2023-05-01T04:25:55.270Z,10.38
2023-05-01T04:26:54.498Z,10.38
2023-05-01T04:28:21.693Z,10.12
2023-05-01T04:30:48.266Z,10.48
2023-05-01T04:31:54.560Z,10.48
2023-05-01T04:33:14.700Z,10.51
2023-05-01T04:35:42.181Z,10.50
2023-05-01T04:36:54.505Z,10.50
2023-05-01T04:38:10.411Z,10.49
2023-05-01T04:40:36.851Z,9.53
2023-05-01T04:41:54.524Z,9.53
2023-05-01T04:43:03.173Z,10.29
2023-05-01T04:45:29.504Z,10.52
2023-05-01T04:46:54.537Z,10.52
2023-05-01T04:47:55.933Z,10.59
2023-05-01T04:50:22.345Z,10.64
2023-05-01T04:51:54.513Z,10.64
2023-05-01T04:52:49.488Z,10.22
2023-05-01T04:55:16.446Z,10.65
2023-05-01T04:56:54.487Z,10.65
2023-05-01T04:57:42.846Z,10.51
2023-05-01T05:00:09.694Z,10.75
2023-05-01T05:01:54.518Z,10.75
2023-05-01T05:02:36.212Z,10.66
2023-05-01T05:05:02.784Z,10.92
2023-05-01T05:06:54.567Z,10.92
2023-05-01T05:07:29.164Z,11.02
2023-05-01T05:09:56.110Z,10.57
2023-05-01T05:11:54.649Z,10.57
2023-05-01T05:12:24.930Z,10.91
2023-05-01T05:14:51.262Z,11.31
2023-05-01T05:16:54.725Z,11.31
2023-05-01T05:17:17.671Z,10.17
2023-05-01T05:19:44.076Z,11.48
2023-05-01T05:21:54.746Z,11.48
2023-05-01T05:22:12.355Z,11.05
2023-05-01T05:24:38.888Z,11.66
2023-05-01T05:26:54.698Z,11.66
2023-05-01T05:27:07.087Z,11.71
2023-05-01T05:29:33.560Z,11.76
2023-05-01T05:31:54.895Z,11.76
2023-05-01T05:32:00.146Z,11.76
2023-05-01T05:34:26.560Z,11.00
2023-05-01T05:36:53.138Z,11.60
2023-05-01T05:36:54.769Z,11.60
2023-05-01T05:39:22.220Z,11.88
2023-05-01T05:41:49.158Z,11.40
2023-05-01T05:41:54.812Z,11.40
2023-05-01T05:44:15.494Z,11.64
2023-05-01T05:46:42.109Z,12.20
2023-05-01T05:46:54.945Z,12.20
2023-05-01T05:49:08.523Z,12.24
2023-05-01T05:51:34.920Z,12.26
2023-05-01T05:51:54.860Z,12.26
2023-05-01T05:54:01.292Z,11.67
2023-05-01T05:56:27.707Z,12.33
2023-05-01T05:56:54.856Z,12.33
2023-05-01T05:58:54.459Z,12.00
2023-05-01T06:01:20.816Z,12.31
2023-05-01T06:01:54.915Z,12.31
2023-05-01T06:03:47.179Z,12.51
2023-05-01T06:06:13.807Z,11.42
2023-05-01T06:06:55.155Z,11.42
2023-05-01T06:08:40.177Z,12.67
2023-05-01T06:11:09.057Z,12.61
2023-05-01T06:11:55.025Z,12.61
2023-05-01T06:13:35.507Z,12.31
2023-05-01T06:16:01.940Z,12.23
2023-05-01T06:16:55.030Z,12.23
2023-05-01T06:18:30.097Z,12.75
2023-05-01T06:20:56.616Z,12.70
2023-05-01T06:21:55.032Z,12.70
2023-05-01T06:23:23.552Z,12.86
2023-05-01T06:25:49.971Z,12.92
2023-05-01T06:26:55.110Z,12.92
2023-05-01T06:28:16.429Z,13.00
2023-05-01T06:30:43.082Z,13.02
2023-05-01T06:31:55.247Z,13.02
2023-05-01T06:33:10.304Z,13.04
2023-05-01T06:35:39.126Z,13.05
2023-05-01T06:36:55.183Z,13.05
2023-05-01T06:38:05.651Z,12.99
2023-05-01T06:40:34.690Z,12.87
2023-05-01T06:41:55.230Z,12.87
2023-05-01T06:43:02.873Z,13.11
2023-05-01T06:45:29.370Z,12.90
2023-05-01T06:46:55.318Z,12.90
2023-05-01T06:47:56.071Z,13.28
2023-05-01T06:50:22.515Z,13.32
2023-05-01T06:51:55.302Z,13.32
2023-05-01T06:52:48.967Z,13.41
2023-05-01T06:55:15.398Z,13.52
2023-05-01T06:56:55.383Z,13.52
2023-05-01T06:57:41.841Z,13.03
2023-05-01T07:00:10.642Z,13.55
2023-05-01T07:01:55.410Z,13.55
2023-05-01T07:02:38.197Z,13.61
2023-05-01T07:05:05.643Z,13.60
2023-05-01T07:06:55.428Z,13.60
2023-05-01T07:07:32.214Z,13.91
2023-05-01T07:09:58.800Z,14.11
2023-05-01T07:11:55.465Z,14.11
2023-05-01T07:12:25.763Z,14.08
2023-05-01T07:14:52.279Z,13.20
2023-05-01T07:16:55.735Z,13.20
2023-05-01T07:17:18.742Z,14.25
2023-05-01T07:19:45.169Z,14.36
2023-05-01T07:21:55.493Z,14.36
2023-05-01T07:22:12.329Z,14.58
2023-05-01T07:24:38.775Z,14.62
2023-05-01T07:26:55.608Z,14.62
2023-05-01T07:27:05.132Z,14.93
2023-05-01T07:29:31.510Z,15.19
2023-05-01T07:31:55.721Z,15.19
2023-05-01T07:31:57.977Z,15.30
2023-05-01T07:34:24.470Z,14.82
2023-05-01T07:36:50.779Z,15.34
2023-05-01T07:36:55.739Z,15.34
2023-05-01T07:39:17.862Z,15.28
2023-05-01T07:41:44.353Z,15.39
2023-05-01T07:41:55.757Z,15.39
2023-05-01T07:44:10.748Z,14.89
2023-05-01T07:46:37.648Z,15.28
2023-05-01T07:46:55.828Z,15.28
2023-05-01T07:49:04.381Z,15.18
2023-05-01T07:51:31.185Z,15.31
2023-05-01T07:51:55.855Z,15.31
2023-05-01T07:53:57.687Z,15.45
2023-05-01T07:56:24.031Z,15.37
2023-05-01T07:56:55.866Z,15.37
2023-05-01T07:58:50.504Z,14.88
2023-05-01T08:01:17.003Z,15.44
2023-05-01T08:01:55.897Z,15.44
2023-05-01T08:03:43.425Z,14.99
2023-05-01T08:06:09.956Z,15.54
2023-05-01T08:06:56.082Z,15.54
2023-05-01T08:08:36.364Z,15.63
2023-05-01T08:11:02.928Z,14.71
2023-05-01T08:11:55.985Z,14.71
2023-05-01T08:13:29.325Z,16.24
2023-05-01T08:15:59.111Z,16.12
2023-05-01T08:16:56.058Z,16.12
2023-05-01T08:18:25.485Z,16.20
2023-05-01T08:20:51.868Z,16.35
2023-05-01T08:21:56.052Z,16.35
2023-05-01T08:23:18.630Z,16.13
2023-05-01T08:25:46.943Z,15.51
2023-05-01T08:26:56.079Z,15.51
2023-05-01T08:28:14.822Z,16.74
2023-05-01T08:30:41.263Z,15.84
2023-05-01T08:31:56.128Z,15.84
2023-05-01T08:33:07.752Z,17.08
2023-05-01T08:35:34.222Z,17.10
2023-05-01T08:36:56.126Z,17.10
2023-05-01T08:38:01.680Z,17.10
2023-05-01T08:40:32.269Z,17.70
2023-05-01T08:41:56.158Z,17.70
2023-05-01T08:43:01.381Z,17.74
2023-05-01T08:45:29.478Z,17.72
2023-05-01T08:46:56.270Z,17.72
2023-05-01T08:47:56.248Z,17.72
2023-05-01T08:50:23.609Z,17.33
2023-05-01T08:51:56.204Z,17.33
2023-05-01T08:52:52.791Z,17.58
2023-05-01T08:55:20.802Z,17.38
2023-05-01T08:56:56.227Z,17.38
2023-05-01T08:57:48.423Z,17.23
2023-05-01T09:00:19.378Z,17.70
2023-05-01T09:01:56.301Z,17.70
2023-05-01T09:02:50.402Z,17.89
2023-05-01T09:05:18.412Z,18.01
2023-05-01T09:06:58.279Z,18.01
2023-05-01T09:07:46.515Z,18.01
2023-05-01T09:10:15.382Z,18.69
2023-05-01T09:11:56.296Z,18.69
2023-05-01T09:12:44.834Z,19.11
2023-05-01T09:15:12.250Z,19.43
2023-05-01T09:16:56.696Z,19.43
2023-05-01T09:17:39.954Z,19.77
2023-05-01T09:20:07.691Z,19.68
2023-05-01T09:21:56.351Z,19.68
2023-05-01T09:22:35.384Z,19.82
2023-05-01T09:25:03.055Z,20.18
2023-05-01T09:26:56.353Z,20.18
2023-05-01T09:27:34.993Z,20.29
2023-05-01T09:30:01.432Z,20.29
2023-05-01T09:31:56.464Z,20.29
2023-05-01T09:32:28.580Z,20.43
2023-05-01T09:34:56.530Z,20.12
2023-05-01T09:36:56.398Z,20.12
2023-05-01T09:37:30.005Z,20.53
2023-05-01T09:40:10.986Z,20.65
2023-05-01T09:41:56.447Z,20.65
2023-05-01T09:42:48.765Z,20.52
2023-05-01T09:45:16.232Z,20.20
2023-05-01T09:46:56.483Z,20.20
2023-05-01T09:47:44.101Z,20.37
2023-05-01T09:50:12.659Z,20.85
2023-05-01T09:51:56.507Z,20.85
2023-05-01T09:52:39.023Z,21.08
2023-05-01T09:55:18.905Z,20.86
2023-05-01T09:56:56.515Z,20.86
2023-05-01T09:57:46.518Z,20.33
2023-05-01T10:00:15.496Z,19.41
2023-05-01T10:01:56.556Z,19.41
2023-05-01T10:02:44.194Z,20.47
2023-05-01T10:05:11.666Z,19.68
2023-05-01T10:06:56.770Z,19.68
2023-05-01T10:07:38.867Z,19.36
2023-05-01T10:10:19.112Z,19.92
2023-05-01T10:11:56.592Z,19.92
2023-05-01T10:12:46.165Z,20.29
2023-05-01T10:15:24.547Z,20.41
2023-05-01T10:16:56.739Z,20.41
2023-05-01T10:17:52.270Z,20.90
2023-05-01T10:20:18.861Z,20.61
2023-05-01T10:21:56.668Z,20.61
2023-05-01T10:22:46.390Z,20.55
2023-05-01T10:25:13.260Z,19.90
2023-05-01T10:26:56.674Z,19.90
2023-05-01T10:27:40.989Z,20.58
2023-05-01T10:30:09.033Z,21.00
2023-05-01T10:31:56.905Z,21.00
2023-05-01T10:32:37.686Z,20.82
2023-05-01T10:35:14.939Z,20.26
2023-05-01T10:36:56.722Z,20.26
2023-05-01T10:37:49.672Z,20.64
2023-05-01T10:40:48.001Z,20.83
2023-05-01T10:41:56.739Z,20.83
2023-05-01T10:43:34.677Z,19.53
2023-05-01T10:46:09.847Z,19.32
2023-05-01T10:46:56.869Z,19.32
2023-05-01T10:48:39.503Z,19.67
2023-05-01T10:51:11.934Z,19.75
2023-05-01T10:51:56.873Z,19.75
2023-05-01T10:53:40.232Z,19.71
2023-05-01T10:56:40.730Z,20.08
2023-05-01T10:56:56.872Z,20.08
2023-05-01T10:59:07.444Z,20.12
2023-05-01T11:01:38.177Z,20.16
2023-05-01T11:01:56.901Z,20.16
2023-05-01T11:04:24.733Z,20.36
2023-05-01T11:07:07.772Z,20.65
2023-05-01T11:07:08.471Z,20.65
2023-05-01T11:09:42.232Z,21.09
2023-05-01T11:11:56.978Z,21.09
2023-05-01T11:12:16.418Z,21.01
2023-05-01T11:14:55.790Z,19.61
2023-05-01T11:16:57.007Z,19.61
2023-05-01T11:17:40.907Z,20.56
2023-05-01T11:20:08.944Z,20.96
2023-05-01T11:21:57.090Z,20.96
2023-05-01T11:22:40.063Z,20.31
2023-05-01T11:25:27.946Z,20.86
2023-05-01T11:26:57.131Z,20.86
2023-05-01T11:27:59.621Z,19.59
2023-05-01T11:30:26.207Z,20.76
2023-05-01T11:31:57.274Z,20.76
2023-05-01T11:32:52.902Z,20.56
2023-05-01T11:35:21.930Z,20.45
2023-05-01T11:36:57.187Z,20.45
2023-05-01T11:37:50.980Z,19.87
2023-05-01T11:40:28.358Z,19.95
2023-05-01T11:41:57.264Z,19.95
2023-05-01T11:43:07.966Z,20.96
2023-05-01T11:45:37.982Z,20.36
2023-05-01T11:46:57.270Z,20.36
2023-05-01T11:48:05.425Z,21.01
2023-05-01T11:50:33.643Z,21.50
2023-05-01T11:51:57.268Z,21.50
2023-05-01T11:53:02.849Z,21.15
2023-05-01T11:55:33.787Z,20.26
2023-05-01T11:56:57.315Z,20.26
2023-05-01T11:58:03.516Z,19.87
2023-05-01T12:00:33.615Z,19.51
2023-05-01T12:01:57.428Z,19.51
2023-05-01T12:03:06.424Z,19.81
2023-05-01T12:05:36.888Z,19.92
2023-05-01T12:06:57.383Z,19.92
2023-05-01T12:08:08.756Z,20.21
2023-05-01T12:10:35.826Z,20.05
2023-05-01T12:11:57.429Z,20.05
2023-05-01T12:13:04.138Z,21.04
2023-05-01T12:15:32.301Z,20.95
2023-05-01T12:16:57.481Z,20.95
2023-05-01T12:17:58.913Z,20.97
2023-05-01T12:20:55.136Z,21.11
2023-05-01T12:21:57.491Z,21.11
2023-05-01T12:23:37.184Z,21.65
2023-05-01T12:26:19.688Z,21.69
2023-05-01T12:26:57.511Z,21.69
2023-05-01T12:28:56.049Z,22.29
2023-05-01T12:31:23.385Z,22.32
2023-05-01T12:31:57.630Z,22.32
2023-05-01T12:33:58.239Z,22.10
2023-05-01T12:36:27.152Z,22.14
2023-05-01T12:36:57.572Z,22.14
2023-05-01T12:39:07.694Z,22.35
2023-05-01T12:41:35.665Z,21.46
2023-05-01T12:41:57.619Z,21.46
2023-05-01T12:44:02.205Z,21.47
2023-05-01T12:46:31.634Z,22.10
2023-05-01T12:46:57.673Z,22.10
2023-05-01T12:48:58.032Z,23.07
2023-05-01T12:51:24.612Z,23.31
2023-05-01T12:51:57.677Z,23.31
2023-05-01T12:53:51.692Z,22.91
2023-05-01T12:56:23.865Z,23.89
2023-05-01T12:56:57.686Z,23.89
2023-05-01T12:58:52.414Z,23.54
2023-05-01T13:01:28.758Z,23.12
2023-05-01T13:01:57.851Z,23.12
2023-05-01T13:03:57.848Z,22.86
2023-05-01T13:06:33.922Z,23.29
2023-05-01T13:06:57.826Z,23.29
2023-05-01T13:09:15.205Z,22.16
2023-05-01T13:11:41.608Z,21.92
2023-05-01T13:11:57.869Z,21.92
2023-05-01T13:14:08.948Z,21.79
2023-05-01T13:16:44.964Z,20.49
2023-05-01T13:16:57.900Z,20.49
2023-05-01T13:19:14.089Z,19.62
2023-05-01T13:21:50.077Z,19.63
2023-05-01T13:21:57.970Z,19.63
2023-05-01T13:24:16.409Z,18.98
2023-05-01T13:26:45.075Z,19.11
2023-05-01T13:26:57.943Z,19.11
2023-05-01T13:29:15.366Z,19.21
2023-05-01T13:31:45.687Z,19.12
2023-05-01T13:31:58.047Z,19.12
2023-05-01T13:34:20.571Z,18.92
2023-05-01T13:36:46.869Z,19.09
2023-05-01T13:36:58.100Z,19.09
2023-05-01T13:39:21.077Z,19.38
2023-05-01T13:41:48.422Z,19.81
2023-05-01T13:41:58.169Z,19.81
2023-05-01T13:44:16.602Z,19.67
2023-05-01T13:46:43.138Z,19.28
2023-05-01T13:46:58.168Z,19.28
2023-05-01T13:49:09.627Z,19.37
2023-05-01T13:51:42.511Z,18.72
2023-05-01T13:51:58.198Z,18.72
2023-05-01T13:54:10.200Z,19.27
2023-05-01T13:56:38.743Z,19.37
2023-05-01T13:56:58.282Z,19.37
2023-05-01T13:59:06.450Z,19.36
2023-05-01T14:01:39.397Z,19.43
2023-05-01T14:01:58.320Z,19.43
2023-05-01T14:04:09.713Z,19.48
2023-05-01T14:06:41.447Z,19.49
2023-05-01T14:06:58.341Z,19.49
2023-05-01T14:09:07.838Z,19.27
2023-05-01T14:11:34.219Z,19.47
2023-05-01T14:11:58.367Z,19.47
2023-05-01T14:14:04.107Z,19.42
2023-05-01T14:16:31.576Z,19.84
2023-05-01T14:16:58.494Z,19.84
2023-05-01T14:18:58.134Z,18.54
2023-05-01T14:21:27.865Z,20.00
2023-05-01T14:21:58.418Z,20.00
2023-05-01T14:23:55.942Z,20.03
2023-05-01T14:26:25.082Z,19.42
2023-05-01T14:26:58.377Z,19.42
2023-05-01T14:28:54.588Z,18.60
2023-05-01T14:31:29.290Z,19.17
2023-05-01T14:31:58.479Z,19.17
2023-05-01T14:34:00.974Z,18.93
2023-05-01T14:36:31.106Z,18.41
2023-05-01T14:36:58.437Z,18.41
2023-05-01T14:38:59.220Z,16.87
2023-05-01T14:41:25.937Z,16.80
2023-05-01T14:41:58.400Z,16.80
2023-05-01T14:43:55.394Z,17.18
2023-05-01T14:46:42.941Z,16.42
2023-05-01T14:46:58.516Z,16.42
2023-05-01T14:49:13.546Z,16.35
2023-05-01T14:51:41.078Z,16.32
2023-05-01T14:51:58.369Z,16.32
2023-05-01T14:54:10.258Z,16.09
2023-05-01T14:56:36.631Z,16.31
2023-05-01T14:56:58.380Z,16.31
2023-05-01T14:59:03.886Z,16.24
2023-05-01T15:01:32.724Z,15.89
2023-05-01T15:01:58.475Z,15.89
2023-05-01T15:06:26.603Z,15.62
2023-05-01T15:06:58.413Z,15.62
2023-05-01T15:08:53.029Z,15.16
2023-05-01T15:11:20.855Z,15.22
2023-05-01T15:11:58.435Z,15.22
2023-05-01T15:13:49.231Z,15.69
2023-05-01T15:16:16.104Z,15.33
2023-05-01T15:16:58.379Z,15.33
2023-05-01T15:18:42.820Z,15.28
2023-05-01T15:21:10.926Z,14.65
2023-05-01T15:21:58.389Z,14.65
2023-05-01T15:23:37.413Z,14.22
2023-05-01T15:26:03.955Z,14.43
2023-05-01T15:26:58.380Z,14.43
2023-05-01T15:28:30.457Z,14.60
2023-05-01T15:30:56.851Z,13.79
2023-05-01T15:32:11.519Z,13.79
2023-05-01T15:33:23.309Z,14.25
2023-05-01T15:35:52.525Z,14.39
2023-05-01T15:36:58.395Z,14.39
2023-05-01T15:38:20.487Z,14.68
2023-05-01T15:40:47.023Z,14.75
2023-05-01T15:41:59.462Z,14.75
2023-05-01T15:43:15.960Z,14.91
2023-05-01T15:45:43.763Z,14.69
2023-05-01T15:46:58.535Z,14.69
2023-05-01T15:48:13.711Z,14.46
2023-05-01T15:50:40.781Z,14.39
2023-05-01T15:51:58.434Z,14.39
2023-05-01T15:53:09.258Z,14.33
2023-05-01T15:55:36.597Z,14.41
2023-05-01T15:56:58.439Z,14.41
2023-05-01T15:58:03.152Z,13.39
2023-05-01T16:00:29.510Z,14.67
2023-05-01T16:01:58.420Z,14.67
2023-05-01T16:02:58.455Z,14.33
2023-05-01T16:05:25.018Z,14.51
2023-05-01T16:06:58.413Z,14.51
2023-05-01T16:07:55.357Z,14.52
2023-05-01T16:10:22.668Z,13.68
2023-05-01T16:11:58.430Z,13.68
2023-05-01T16:12:50.886Z,14.65
2023-05-01T16:15:17.520Z,14.49
2023-05-01T16:16:58.490Z,14.49
2023-05-01T16:17:45.227Z,14.56
2023-05-01T16:20:13.142Z,14.50
2023-05-01T16:21:58.402Z,14.50
2023-05-01T16:22:41.195Z,14.80
2023-05-01T16:25:09.532Z,14.90
2023-05-01T16:26:58.410Z,14.90
2023-05-01T16:27:42.448Z,14.37
2023-05-01T16:30:09.817Z,14.43
2023-05-01T16:31:58.500Z,14.43
2023-05-01T16:32:36.385Z,14.06
2023-05-01T16:35:05.349Z,14.39
2023-05-01T16:36:58.428Z,14.39
2023-05-01T16:37:33.864Z,14.92
2023-05-01T16:40:00.824Z,13.71
2023-05-01T16:41:58.520Z,13.71
2023-05-01T16:42:27.698Z,15.12
2023-05-01T16:44:54.257Z,14.66
2023-05-01T16:46:58.415Z,14.66
2023-05-01T16:47:20.654Z,14.51
2023-05-01T16:49:47.098Z,14.25
2023-05-01T16:51:58.416Z,14.25
2023-05-01T16:52:16.421Z,13.89
2023-05-01T16:54:42.953Z,14.14
2023-05-01T16:56:58.428Z,14.14
2023-05-01T16:57:09.609Z,13.76
2023-05-01T16:59:37.368Z,14.06
2023-05-01T17:01:58.466Z,14.06
2023-05-01T17:02:05.008Z,13.74
2023-05-01T17:04:31.409Z,13.83
2023-05-01T17:06:57.899Z,14.50
2023-05-01T17:06:58.480Z,14.50
2023-05-01T17:09:24.432Z,14.52
2023-05-01T17:11:50.926Z,14.67
2023-05-01T17:11:58.422Z,14.67
2023-05-01T17:14:17.336Z,14.66
2023-05-01T17:16:43.723Z,14.86
2023-05-01T17:16:58.635Z,14.86
2023-05-01T17:19:10.237Z,15.04
2023-05-01T17:21:36.594Z,15.26
2023-05-01T17:21:58.451Z,15.26
2023-05-01T17:24:03.111Z,15.06
2023-05-01T17:26:29.575Z,14.80
2023-05-01T17:26:58.440Z,14.80
2023-05-01T17:28:56.002Z,14.66
2023-05-01T17:31:22.816Z,14.70
2023-05-01T17:31:58.641Z,14.70
2023-05-01T17:33:49.537Z,13.86
2023-05-01T17:36:16.191Z,14.21
2023-05-01T17:36:58.493Z,14.21
2023-05-01T17:38:42.611Z,14.30
2023-05-01T17:41:08.926Z,14.48
2023-05-01T17:41:59.517Z,14.48
2023-05-01T17:43:35.310Z,14.34
2023-05-01T17:46:01.864Z,14.54
2023-05-01T17:46:58.422Z,14.54
2023-05-01T17:48:28.290Z,14.33
2023-05-01T17:50:55.790Z,14.16
2023-05-01T17:51:58.458Z,14.16
2023-05-01T17:53:23.203Z,14.24
2023-05-01T17:55:49.680Z,13.65
2023-05-01T17:56:58.494Z,13.65
2023-05-01T17:58:16.307Z,13.53
2023-05-01T18:00:45.112Z,13.23
2023-05-01T18:01:58.665Z,13.23
2023-05-01T18:03:11.546Z,13.75
2023-05-01T18:05:38.311Z,13.80
2023-05-01T18:06:58.542Z,13.80
2023-05-01T18:08:04.775Z,13.78
2023-05-01T18:10:31.393Z,13.46
2023-05-01T18:11:58.479Z,13.46
2023-05-01T18:12:58.267Z,13.23
2023-05-01T18:15:24.903Z,13.26
2023-05-01T18:16:58.695Z,13.26
2023-05-01T18:17:54.005Z,13.20
2023-05-01T18:20:20.440Z,13.01
2023-05-01T18:21:58.458Z,13.01
2023-05-01T18:22:46.999Z,13.01
2023-05-01T18:25:15.917Z,12.79
2023-05-01T18:26:58.466Z,12.79
2023-05-01T18:27:42.807Z,13.05
2023-05-01T18:30:09.755Z,11.79
2023-05-01T18:31:58.662Z,11.79
2023-05-01T18:32:46.843Z,13.16
2023-05-01T18:35:15.050Z,12.98
2023-05-01T18:36:58.462Z,12.98
2023-05-01T18:37:43.739Z,12.86
2023-05-01T18:40:10.427Z,12.12
2023-05-01T18:41:58.502Z,12.12
2023-05-01T18:42:36.816Z,12.62
2023-05-01T18:45:04.072Z,12.53
2023-05-01T18:46:58.594Z,12.53
2023-05-01T18:47:32.332Z,12.41
2023-05-01T18:49:59.260Z,12.28
2023-05-01T18:51:58.510Z,12.28
2023-05-01T18:52:25.956Z,12.00
2023-05-01T18:54:52.391Z,11.81
2023-05-01T18:56:58.500Z,11.81
2023-05-01T18:57:18.813Z,12.06
2023-05-01T18:59:45.344Z,12.01
2023-05-01T19:01:58.565Z,12.01
2023-05-01T19:02:11.786Z,10.93
2023-05-01T19:04:49.312Z,11.54
2023-05-01T19:06:58.524Z,11.54
2023-05-01T19:07:22.937Z,11.79
2023-05-01T19:09:49.519Z,11.98
2023-05-01T19:11:58.472Z,11.98
2023-05-01T19:12:16.407Z,11.92
2023-05-01T19:14:42.820Z,11.84
2023-05-01T19:16:58.522Z,11.84
2023-05-01T19:17:09.330Z,11.83
2023-05-01T19:19:35.703Z,11.73
2023-05-01T19:21:58.470Z,11.73
2023-05-01T19:22:02.027Z,11.72
2023-05-01T19:24:28.564Z,11.77
2023-05-01T19:26:54.865Z,11.90
2023-05-01T19:26:58.497Z,11.90
2023-05-01T19:29:21.334Z,11.96
2023-05-01T19:31:47.736Z,11.71
2023-05-01T19:31:58.577Z,11.71
2023-05-01T19:34:14.293Z,11.97
2023-05-01T19:36:40.781Z,11.76
2023-05-01T19:37:00.498Z,11.76
2023-05-01T19:39:07.110Z,11.45
2023-05-01T19:41:33.589Z,11.77
2023-05-01T19:41:58.495Z,11.77
2023-05-01T19:43:59.919Z,11.72
2023-05-01T19:46:26.793Z,11.17
2023-05-01T19:46:58.514Z,11.17
2023-05-01T19:48:53.200Z,11.16
2023-05-01T19:51:19.620Z,11.65
2023-05-01T19:51:58.495Z,11.65
2023-05-01T19:53:46.716Z,11.60
2023-05-01T19:56:13.092Z,11.18
2023-05-01T19:56:58.515Z,11.18
2023-05-01T19:58:39.572Z,11.51
2023-05-01T20:01:09.013Z,11.32
2023-05-01T20:02:00.946Z,11.32
2023-05-01T20:03:35.512Z,11.53
2023-05-01T20:06:02.041Z,10.73
2023-05-01T20:06:58.499Z,10.73
2023-05-01T20:08:28.513Z,11.40
2023-05-01T20:10:54.953Z,10.91
2023-05-01T20:11:58.480Z,10.91
2023-05-01T20:13:21.332Z,11.36
2023-05-01T20:15:47.685Z,11.29
2023-05-01T20:16:58.607Z,11.29
2023-05-01T20:18:14.330Z,11.20
2023-05-01T20:20:40.801Z,10.78
2023-05-01T20:21:58.501Z,10.78
2023-05-01T20:23:14.751Z,11.01
2023-05-01T20:25:42.413Z,10.30
2023-05-01T20:26:58.520Z,10.30
2023-05-01T20:28:10.958Z,10.90
2023-05-01T20:30:39.308Z,10.98
2023-05-01T20:31:58.517Z,10.98
2023-05-01T20:33:07.671Z,10.80
2023-05-01T20:35:34.138Z,10.53
2023-05-01T20:36:58.502Z,10.53
2023-05-01T20:38:02.144Z,10.82
2023-05-01T20:40:31.938Z,10.85
2023-05-01T20:41:58.578Z,10.85
2023-05-01T20:43:01.873Z,10.45
2023-05-01T20:45:31.625Z,10.58
2023-05-01T20:46:58.521Z,10.58
2023-05-01T20:47:58.789Z,10.90
2023-05-01T20:50:26.192Z,10.95
2023-05-01T20:51:58.653Z,10.95
2023-05-01T20:52:53.957Z,10.78
2023-05-01T20:55:22.672Z,10.75
2023-05-01T20:56:58.521Z,10.75
2023-05-01T20:57:49.066Z,10.50
2023-05-01T21:00:17.858Z,10.78
2023-05-01T21:01:58.545Z,10.78
2023-05-01T21:02:44.629Z,10.77
2023-05-01T21:05:11.297Z,10.72
2023-05-01T21:06:58.601Z,10.72
2023-05-01T21:07:38.882Z,10.40
2023-05-01T21:10:16.436Z,10.68
2023-05-01T21:11:58.578Z,10.68
2023-05-01T21:12:42.893Z,10.59
2023-05-01T21:15:11.057Z,10.64
2023-05-01T21:16:58.529Z,10.64
2023-05-01T21:17:43.240Z,10.59
2023-05-01T21:20:18.902Z,10.54
2023-05-01T21:21:58.513Z,10.54
2023-05-01T21:22:47.978Z,10.60
2023-05-01T21:25:19.716Z,10.40
2023-05-01T21:26:58.532Z,10.40